To NAV CANADA Home Page Login to a new session Search on AWWS site Disclaimer Vers la page française équivalente Tips FAQ What's new on the site To the Forecasts and Observations / NOTAM section To "File a Flight Plan" website Publications and other links Update of the User's profile FIC Telephone Numbers My Weather Data Folder Route Weather Data Regional Weather Data Local Weather Data To the Forecasts and Observations / NOTAM section
Request Generated 06/30/2022 at 10:38:01 UTC . Weather information available at that time is displayed.

METAR/TAF

GOOSE BAY/NL    

SPECI CYYR 301024Z 00000KT 15SM -SHRA FEW040 BKN080 15/11 A3006 RMK SC2AC5 PCPN VRY LGT SLP180=
METAR CYYR 301000Z 22003KT 15SM BKN075 BKN085 15/10 A3005 RMK AC5AC2 SLP177=
METAR CYYR 300900Z 25006KT 15SM BKN070 BKN100 BKN160 16/10 A3004 RMK AC5AC2AC1 SLP173=
METAR CYYR 300800Z 24005KT 15SM FEW060 FEW095 BKN250 13/09 A3004 RMK SC1AC1CI5 SLP172=

TAF CYYR 300540Z 3006/0106 VRB03KT P6SM FEW100 FEW160
BECMG 3006/3008 BKN040
FM300800 30008KT P6SM SCT015 BKN040 OVC100 TEMPO 3008/3020 P6SM
-SHRA BKN015 OVC040
FM302000 11005KT P6SM SCT050 SCT210
BECMG 3021/3023 VRB03KT
RMK NXT FCST BY 301200Z
Your time UTC time
Weather data provided by Environment Canada and NAV CANADA